Time;durP1;ratioP1;P1;durP2;ratioP2;P2;SDS_P1;SDS_P2;PMS_P1;PMS_P2;Temp;Humidity;BMP_temperature;BMP_pressure;BME280_temperature;BME280_humidity;BME280_pressure;Samples;Min_cycle;Max_cycle;Signal;HPM_P1;HPM_P2
2023/03/17 00:00:18;;;;;;;6.55;3.60;;;;;;;;;;5053568;28;20124;-75
2023/03/17 00:02:45;;;;;;;5.40;3.42;;;;;;;;;;5035049;28;20493;-75
2023/03/17 00:05:24;;;;;;;5.93;3.80;;;;;;;;;;5047694;28;20428;-75
2023/03/17 00:07:52;;;;;;;4.82;3.42;;;;;;;;;;5038351;28;20136;-75
2023/03/17 00:10:27;;;;;;;7.75;3.60;;;;;;;;;;5070197;28;20048;-75
2023/03/17 00:12:54;;;;;;;6.75;4.03;;;;;;;;;;5055034;28;20132;-75
2023/03/17 00:15:21;;;;;;;8.07;3.63;;;;;;;;;;5072889;28;20048;-75
2023/03/17 00:17:47;;;;;;;7.07;3.70;;;;;;;;;;5062935;28;20116;-75
2023/03/17 00:20:23;;;;;;;5.72;3.40;;;;;;;;;;5052839;28;20405;-74
2023/03/17 00:22:49;;;;;;;6.88;3.47;;;;;;;;;;5050542;28;20067;-75
2023/03/17 00:25:21;;;;;;;4.82;3.45;;;;;;;;;;5034858;28;20527;-75
2023/03/17 00:27:48;;;;;;;5.45;3.20;;;;;;;;;;5052941;28;20045;-74
2023/03/17 00:30:14;;;;;;;6.72;3.50;;;;;;;;;;5018516;28;20132;-75
2023/03/17 00:32:40;;;;;;;5.82;3.42;;;;;;;;;;5018480;28;20367;-75
2023/03/17 00:35:14;;;;;;;6.13;3.60;;;;;;;;;;5051341;28;20067;-75
2023/03/17 00:37:41;;;;;;;5.03;3.17;;;;;;;;;;5046051;28;20147;-75
2023/03/17 00:40:21;;;;;;;4.50;3.33;;;;;;;;;;5018229;28;20041;-75
2023/03/17 00:42:47;;;;;;;7.05;3.33;;;;;;;;;;5052587;28;20469;-75
2023/03/17 00:45:14;;;;;;;6.10;3.40;;;;;;;;;;5035177;28;20077;-75
2023/03/17 00:47:41;;;;;;;5.63;3.38;;;;;;;;;;5068000;28;20052;-75
2023/03/17 00:50:10;;;;;;;6.63;3.50;;;;;;;;;;5067838;28;20040;-75
2023/03/17 00:52:37;;;;;;;5.43;3.40;;;;;;;;;;5052108;28;20098;-75
2023/03/17 00:55:04;;;;;;;7.10;3.35;;;;;;;;;;5052177;28;20106;-75
2023/03/17 00:57:30;;;;;;;5.28;3.20;;;;;;;;;;5050608;28;20406;-75
2023/03/17 00:59:56;;;;;;;6.80;3.60;;;;;;;;;;5048097;28;20524;-75
2023/03/17 01:02:23;;;;;;;7.53;3.80;;;;;;;;;;5017914;28;20087;-74
2023/03/17 01:04:49;;;;;;;7.53;3.38;;;;;;;;;;5017977;28;20048;-74
2023/03/17 01:07:15;;;;;;;6.43;3.78;;;;;;;;;;5034315;28;20036;-75
2023/03/17 01:09:42;;;;;;;7.95;3.28;;;;;;;;;;5052099;28;20060;-74
2023/03/17 01:12:10;;;;;;;8.35;3.80;;;;;;;;;;5034425;28;20053;-75
2023/03/17 01:14:36;;;;;;;5.90;3.70;;;;;;;;;;5050764;28;20135;-75
2023/03/17 01:17:02;;;;;;;5.40;3.30;;;;;;;;;;5053244;28;20044;-75
2023/03/17 01:19:28;;;;;;;5.55;3.40;;;;;;;;;;5071740;28;20083;-76
2023/03/17 01:21:54;;;;;;;7.68;3.55;;;;;;;;;;5054088;28;20044;-74
2023/03/17 01:24:20;;;;;;;6.82;3.50;;;;;;;;;;5071927;28;20346;-75
2023/03/17 01:26:46;;;;;;;6.45;3.75;;;;;;;;;;5072430;28;20044;-75
2023/03/17 01:29:13;;;;;;;5.68;3.60;;;;;;;;;;5071771;28;20094;-75
2023/03/17 01:31:39;;;;;;;6.15;3.40;;;;;;;;;;5037216;28;20052;-75
2023/03/17 01:34:06;;;;;;;4.75;3.38;;;;;;;;;;5052070;28;20398;-75
2023/03/17 01:36:33;;;;;;;5.18;3.40;;;;;;;;;;5067258;28;20080;-75
2023/03/17 01:38:59;;;;;;;4.63;3.30;;;;;;;;;;5037469;28;20044;-74
2023/03/17 01:41:25;;;;;;;5.55;3.70;;;;;;;;;;5052273;28;20478;-75
2023/03/17 01:43:51;;;;;;;8.88;3.95;;;;;;;;;;5051703;28;20111;-75
2023/03/17 01:46:23;;;;;;;6.38;3.50;;;;;;;;;;5051726;28;20433;-75
2023/03/17 01:48:49;;;;;;;5.90;3.47;;;;;;;;;;5051733;28;20052;-75
2023/03/17 01:51:18;;;;;;;5.28;3.40;;;;;;;;;;5067454;28;20049;-75
2023/03/17 01:53:46;;;;;;;7.22;3.60;;;;;;;;;;5057663;28;20119;-75
2023/03/17 01:56:12;;;;;;;4.90;3.20;;;;;;;;;;5073130;28;20394;-74
2023/03/17 01:58:38;;;;;;;6.07;3.20;;;;;;;;;;5075790;28;20041;-75
2023/03/17 02:01:06;;;;;;;5.68;3.53;;;;;;;;;;5057672;28;20052;-75
2023/03/17 02:03:33;;;;;;;7.82;3.70;;;;;;;;;;5057565;28;20127;-75
2023/03/17 02:06:00;;;;;;;6.07;3.55;;;;;;;;;;5057197;28;20119;-75
2023/03/17 02:08:26;;;;;;;6.50;3.30;;;;;;;;;;5055477;28;20076;-75
2023/03/17 02:10:53;;;;;;;6.53;3.60;;;;;;;;;;5036720;28;20052;-75
2023/03/17 02:13:19;;;;;;;7.90;3.90;;;;;;;;;;5054073;28;20124;-75
2023/03/17 02:15:50;;;;;;;5.32;3.40;;;;;;;;;;5055411;28;20053;-75
2023/03/17 02:18:17;;;;;;;5.70;3.33;;;;;;;;;;5055080;28;20049;-75
2023/03/17 02:20:46;;;;;;;8.05;3.83;;;;;;;;;;5053716;28;20045;-75
2023/03/17 02:23:16;;;;;;;6.72;3.83;;;;;;;;;;5056295;28;20084;-75
2023/03/17 02:25:44;;;;;;;5.95;3.35;;;;;;;;;;5040713;28;20135;-75
2023/03/17 02:28:12;;;;;;;5.28;3.28;;;;;;;;;;5057007;28;20052;-74
2023/03/17 02:30:39;;;;;;;5.82;3.55;;;;;;;;;;5057147;28;20052;-75
2023/03/17 02:33:05;;;;;;;5.80;3.17;;;;;;;;;;5072962;28;20041;-75
2023/03/17 02:35:31;;;;;;;5.55;3.60;;;;;;;;;;5056989;28;20044;-75
2023/03/17 02:37:57;;;;;;;6.50;3.33;;;;;;;;;;5044996;28;20049;-75
2023/03/17 02:40:24;;;;;;;4.72;3.38;;;;;;;;;;5034107;28;20048;-75
2023/03/17 02:42:50;;;;;;;7.03;3.55;;;;;;;;;;5035731;28;20049;-75
2023/03/17 02:45:16;;;;;;;5.35;3.08;;;;;;;;;;5054670;28;20132;-75
2023/03/17 02:47:42;;;;;;;6.18;3.50;;;;;;;;;;5036621;28;20041;-74
2023/03/17 02:50:09;;;;;;;5.32;3.53;;;;;;;;;;5074500;28;20404;-75
2023/03/17 02:52:36;;;;;;;7.40;3.55;;;;;;;;;;5059924;28;20114;-75
2023/03/17 02:55:02;;;;;;;6.82;3.70;;;;;;;;;;5054704;28;20052;-75
2023/03/17 02:57:28;;;;;;;7.47;3.50;;;;;;;;;;5054886;28;20052;-74
2023/03/17 02:59:54;;;;;;;6.03;3.58;;;;;;;;;;5054434;28;20041;-75
2023/03/17 03:02:20;;;;;;;5.95;3.40;;;;;;;;;;5069079;28;20045;-75
2023/03/17 03:04:46;;;;;;;8.00;3.60;;;;;;;;;;5054197;28;20489;-74
2023/03/17 03:07:12;;;;;;;6.53;3.58;;;;;;;;;;5054442;28;20041;-74
2023/03/17 03:09:38;;;;;;;5.00;3.45;;;;;;;;;;5064624;28;20045;-75
2023/03/17 03:12:08;;;;;;;7.45;3.65;;;;;;;;;;5064984;28;20084;-75
2023/03/17 03:14:34;;;;;;;6.80;3.88;;;;;;;;;;5034137;28;20053;-75
2023/03/17 03:17:01;;;;;;;4.78;3.20;;;;;;;;;;5066324;28;20045;-75
2023/03/17 03:19:27;;;;;;;5.22;3.85;;;;;;;;;;5065796;28;20405;-75
2023/03/17 03:21:53;;;;;;;5.85;3.45;;;;;;;;;;5065075;28;20038;-75
2023/03/17 03:24:19;;;;;;;6.25;3.60;;;;;;;;;;5033636;28;20521;-75
2023/03/17 03:26:45;;;;;;;5.65;3.55;;;;;;;;;;5066073;28;20045;-75
2023/03/17 03:29:11;;;;;;;7.47;3.97;;;;;;;;;;5033279;28;20053;-75
2023/03/17 03:31:37;;;;;;;5.18;3.40;;;;;;;;;;5033534;28;20567;-75
2023/03/17 03:34:04;;;;;;;6.55;3.83;;;;;;;;;;5033278;28;20045;-75
2023/03/17 03:36:31;;;;;;;8.57;3.80;;;;;;;;;;5064761;28;20042;-75
2023/03/17 03:38:57;;;;;;;5.32;3.60;;;;;;;;;;5065192;28;20096;-75
2023/03/17 03:41:23;;;;;;;5.15;3.33;;;;;;;;;;5033996;28;20418;-75
2023/03/17 03:43:49;;;;;;;7.47;3.65;;;;;;;;;;5065505;28;20049;-75
2023/03/17 03:46:15;;;;;;;6.28;3.92;;;;;;;;;;5059148;28;20060;-75
2023/03/17 03:48:41;;;;;;;6.72;3.78;;;;;;;;;;5032437;28;20402;-75
2023/03/17 03:51:07;;;;;;;6.75;4.07;;;;;;;;;;5039383;28;20049;-75
2023/03/17 03:53:34;;;;;;;6.85;4.18;;;;;;;;;;5030301;28;20057;-75
2023/03/17 03:56:00;;;;;;;6.53;3.80;;;;;;;;;;5050022;28;20037;-75
2023/03/17 03:58:26;;;;;;;6.57;3.78;;;;;;;;;;5053260;28;20045;-75
2023/03/17 04:00:52;;;;;;;6.55;3.78;;;;;;;;;;5053118;28;20041;-74
2023/03/17 04:03:18;;;;;;;6.50;3.50;;;;;;;;;;5053008;28;20376;-75
2023/03/17 04:05:45;;;;;;;5.20;3.45;;;;;;;;;;5051852;28;20037;-75
2023/03/17 04:08:11;;;;;;;6.78;3.72;;;;;;;;;;5035297;28;20049;-74
2023/03/17 04:10:37;;;;;;;6.60;3.90;;;;;;;;;;5050344;28;20374;-75
2023/03/17 04:13:03;;;;;;;5.97;3.92;;;;;;;;;;5065079;28;20111;-74
2023/03/17 04:15:29;;;;;;;7.03;4.00;;;;;;;;;;5065326;28;20417;-75
2023/03/17 04:17:55;;;;;;;6.40;3.97;;;;;;;;;;5060426;28;20083;-75
2023/03/17 04:20:21;;;;;;;6.35;3.65;;;;;;;;;;5031236;28;20052;-75
2023/03/17 04:22:47;;;;;;;6.88;3.78;;;;;;;;;;5033036;28;20057;-75
2023/03/17 04:25:14;;;;;;;6.45;3.72;;;;;;;;;;5031610;28;20049;-75
2023/03/17 04:27:41;;;;;;;5.55;3.40;;;;;;;;;;5033028;28;20041;-75
2023/03/17 04:30:07;;;;;;;6.20;4.10;;;;;;;;;;5032887;28;20094;-75
2023/03/17 04:32:33;;;;;;;6.75;3.63;;;;;;;;;;5032691;28;20052;-75
2023/03/17 04:34:59;;;;;;;6.68;3.33;;;;;;;;;;5032536;28;20052;-75
2023/03/17 04:37:25;;;;;;;6.03;3.40;;;;;;;;;;5031418;28;20049;-75
2023/03/17 04:39:52;;;;;;;5.70;3.67;;;;;;;;;;5031170;28;20041;-75
2023/03/17 04:42:18;;;;;;;6.13;3.80;;;;;;;;;;5032824;28;20041;-75
2023/03/17 04:44:44;;;;;;;6.22;4.03;;;;;;;;;;5046258;28;20489;-75
2023/03/17 04:47:11;;;;;;;5.32;3.60;;;;;;;;;;5051316;28;20465;-74
2023/03/17 04:49:37;;;;;;;5.95;3.55;;;;;;;;;;5044318;28;20041;-74
2023/03/17 04:52:03;;;;;;;7.70;3.60;;;;;;;;;;5051308;28;20051;-75
2023/03/17 04:54:29;;;;;;;6.65;4.00;;;;;;;;;;5039387;28;20044;-75
2023/03/17 04:56:55;;;;;;;7.65;3.72;;;;;;;;;;5052472;28;20076;-75
2023/03/17 04:59:21;;;;;;;6.00;3.67;;;;;;;;;;5050901;28;20151;-75
2023/03/17 05:01:47;;;;;;;7.38;3.85;;;;;;;;;;5052172;28;20041;-75
2023/03/17 05:04:13;;;;;;;8.20;3.65;;;;;;;;;;5034093;28;20047;-74
2023/03/17 05:06:39;;;;;;;5.85;3.92;;;;;;;;;;5052057;28;20055;-75
2023/03/17 05:09:05;;;;;;;7.65;3.90;;;;;;;;;;5062064;28;21733;-74
2023/03/17 05:11:31;;;;;;;5.03;3.42;;;;;;;;;;5037759;28;20101;-75
2023/03/17 05:13:57;;;;;;;6.35;3.83;;;;;;;;;;5054090;28;20079;-75
2023/03/17 05:16:23;;;;;;;6.55;3.70;;;;;;;;;;5072489;28;20116;-75
2023/03/17 05:18:50;;;;;;;5.95;3.53;;;;;;;;;;5071642;28;20512;-73
2023/03/17 05:21:16;;;;;;;6.68;3.80;;;;;;;;;;5066389;28;20059;-73
2023/03/17 05:23:42;;;;;;;5.57;3.60;;;;;;;;;;5070050;28;20037;-74
2023/03/17 05:26:09;;;;;;;6.15;3.88;;;;;;;;;;5054147;28;20044;-73
2023/03/17 05:28:35;;;;;;;5.97;3.90;;;;;;;;;;5069097;28;20048;-73
2023/03/17 05:31:02;;;;;;;7.90;3.72;;;;;;;;;;5053310;28;20492;-73
2023/03/17 05:33:28;;;;;;;6.53;3.38;;;;;;;;;;5057925;28;20499;-74
2023/03/17 05:35:54;;;;;;;5.50;3.60;;;;;;;;;;5071640;28;21395;-74
2023/03/17 05:38:20;;;;;;;8.18;3.85;;;;;;;;;;5060380;28;20045;-74
2023/03/17 05:40:48;;;;;;;7.07;3.90;;;;;;;;;;5021746;28;20044;-75
2023/03/17 05:43:14;;;;;;;6.45;4.05;;;;;;;;;;5055545;28;20094;-73
2023/03/17 05:45:43;;;;;;;6.20;3.90;;;;;;;;;;5055886;28;20045;-74
2023/03/17 05:48:11;;;;;;;6.45;4.05;;;;;;;;;;5037950;28;20063;-75
2023/03/17 05:50:37;;;;;;;7.35;3.88;;;;;;;;;;5037674;28;20041;-74
2023/03/17 05:53:03;;;;;;;7.13;3.58;;;;;;;;;;5070062;28;20072;-74
2023/03/17 05:55:29;;;;;;;8.30;3.75;;;;;;;;;;5057808;28;20056;-75
2023/03/17 05:57:55;;;;;;;8.15;3.95;;;;;;;;;;5075324;28;20060;-74
2023/03/17 06:00:22;;;;;;;5.55;3.67;;;;;;;;;;5057462;28;20477;-75
2023/03/17 06:02:48;;;;;;;11.07;4.00;;;;;;;;;;5057332;28;20048;-74
2023/03/17 06:05:14;;;;;;;9.40;3.80;;;;;;;;;;5075452;28;20086;-74
2023/03/17 06:07:40;;;;;;;12.18;3.90;;;;;;;;;;5038955;28;20044;-75
2023/03/17 06:10:06;;;;;;;6.32;3.78;;;;;;;;;;5071961;28;20431;-75
2023/03/17 06:12:33;;;;;;;5.95;3.70;;;;;;;;;;5070673;28;20056;-75
2023/03/17 06:14:59;;;;;;;7.47;3.78;;;;;;;;;;5055260;28;20048;-75
2023/03/17 06:17:25;;;;;;;5.63;3.53;;;;;;;;;;5055214;28;20045;-75
2023/03/17 06:19:51;;;;;;;7.18;3.67;;;;;;;;;;5054037;28;20463;-75
2023/03/17 06:22:17;;;;;;;8.70;4.00;;;;;;;;;;5053624;28;20370;-75
2023/03/17 06:24:43;;;;;;;9.43;3.78;;;;;;;;;;5049514;28;20044;-75
2023/03/17 06:27:09;;;;;;;13.30;4.07;;;;;;;;;;5055043;28;20049;-74
2023/03/17 06:29:36;;;;;;;14.95;4.53;;;;;;;;;;5054964;28;20131;-74
2023/03/17 06:32:03;;;;;;;14.05;4.40;;;;;;;;;;5054798;28;20052;-75
2023/03/17 06:34:29;;;;;;;9.35;3.75;;;;;;;;;;5069881;28;20087;-75
2023/03/17 06:36:56;;;;;;;9.82;3.83;;;;;;;;;;5054613;28;20053;-74
2023/03/17 06:39:22;;;;;;;6.68;3.80;;;;;;;;;;5059957;28;20374;-75
2023/03/17 06:41:51;;;;;;;6.53;3.85;;;;;;;;;;5074194;28;20461;-74
2023/03/17 06:44:17;;;;;;;10.27;4.00;;;;;;;;;;5055029;28;20133;-74
2023/03/17 06:46:43;;;;;;;8.40;3.95;;;;;;;;;;5037703;28;20052;-74
2023/03/17 06:49:12;;;;;;;6.00;3.58;;;;;;;;;;5063571;28;20041;-74
2023/03/17 06:51:38;;;;;;;6.47;3.60;;;;;;;;;;5065695;28;20405;-74
2023/03/17 06:54:05;;;;;;;6.95;3.75;;;;;;;;;;5072454;28;20106;-74
2023/03/17 06:56:31;;;;;;;6.75;4.13;;;;;;;;;;5074322;28;20052;-74
2023/03/17 06:58:58;;;;;;;7.65;4.13;;;;;;;;;;5055885;28;20051;-75
2023/03/17 07:01:24;;;;;;;7.18;4.07;;;;;;;;;;5054786;28;20040;-74
2023/03/17 07:03:50;;;;;;;7.57;3.70;;;;;;;;;;5073833;28;20049;-75
2023/03/17 07:06:16;;;;;;;6.55;4.10;;;;;;;;;;5074078;28;20051;-75
2023/03/17 07:08:42;;;;;;;9.55;4.00;;;;;;;;;;5055793;28;20056;-74
2023/03/17 07:11:08;;;;;;;8.27;3.88;;;;;;;;;;5074211;28;20047;-75
2023/03/17 07:13:36;;;;;;;8.05;3.72;;;;;;;;;;5073576;28;20354;-75
2023/03/17 07:16:02;;;;;;;5.88;3.70;;;;;;;;;;5072224;28;20048;-75
2023/03/17 07:18:32;;;;;;;7.22;4.13;;;;;;;;;;5073569;28;20094;-75
2023/03/17 07:21:02;;;;;;;7.03;4.20;;;;;;;;;;5047925;28;20032;-76
2023/03/17 07:23:29;;;;;;;6.07;4.00;;;;;;;;;;5063087;28;20052;-74
2023/03/17 07:25:56;;;;;;;5.75;3.67;;;;;;;;;;5061273;28;20565;-74
2023/03/17 07:28:22;;;;;;;8.70;3.75;;;;;;;;;;5075081;28;20040;-74
2023/03/17 07:30:49;;;;;;;6.38;3.70;;;;;;;;;;5058273;28;20051;-74
2023/03/17 07:33:16;;;;;;;6.30;3.60;;;;;;;;;;5093277;28;20153;-74
2023/03/17 07:35:42;;;;;;;7.68;3.50;;;;;;;;;;5074896;28;20135;-74
2023/03/17 07:38:08;;;;;;;7.25;4.38;;;;;;;;;;5083138;28;20054;-74
2023/03/17 07:40:35;;;;;;;10.35;3.60;;;;;;;;;;5091105;28;20064;-74
2023/03/17 07:43:01;;;;;;;7.30;3.88;;;;;;;;;;5087403;28;20051;-73
2023/03/17 07:45:27;;;;;;;8.75;4.18;;;;;;;;;;5067553;28;20032;-74
2023/03/17 07:47:53;;;;;;;6.93;3.95;;;;;;;;;;5090308;28;20036;-74
2023/03/17 07:50:20;;;;;;;6.38;3.88;;;;;;;;;;5072392;28;20036;-74
2023/03/17 07:52:46;;;;;;;8.02;3.80;;;;;;;;;;5070435;28;20037;-73
2023/03/17 07:55:12;;;;;;;5.70;3.40;;;;;;;;;;5073855;28;20376;-74
2023/03/17 07:57:39;;;;;;;9.65;4.18;;;;;;;;;;5092563;28;20088;-75
2023/03/17 08:00:09;;;;;;;7.05;4.07;;;;;;;;;;5074519;28;20028;-74
2023/03/17 08:02:35;;;;;;;8.27;4.07;;;;;;;;;;5057509;28;20127;-74
2023/03/17 08:05:02;;;;;;;6.55;3.88;;;;;;;;;;5074453;28;20044;-74
2023/03/17 08:07:29;;;;;;;9.80;3.80;;;;;;;;;;5088540;28;20102;-74
2023/03/17 08:09:56;;;;;;;6.38;4.00;;;;;;;;;;5072516;28;20060;-74
2023/03/17 08:12:22;;;;;;;6.13;4.13;;;;;;;;;;5071851;28;20127;-75
2023/03/17 08:14:49;;;;;;;7.20;3.58;;;;;;;;;;5037340;28;20143;-74
2023/03/17 08:17:16;;;;;;;8.45;3.85;;;;;;;;;;5053192;28;20052;-74
2023/03/17 08:19:42;;;;;;;5.97;3.70;;;;;;;;;;5041907;28;20044;-74
2023/03/17 08:22:08;;;;;;;8.07;4.10;;;;;;;;;;5055032;28;20493;-76
2023/03/17 08:24:35;;;;;;;7.78;4.25;;;;;;;;;;5054881;28;20045;-75
2023/03/17 08:27:02;;;;;;;7.85;4.03;;;;;;;;;;5054862;28;20468;-75
2023/03/17 08:29:29;;;;;;;9.30;4.22;;;;;;;;;;5059737;28;20149;-76
2023/03/17 08:31:55;;;;;;;6.38;3.95;;;;;;;;;;5068364;28;20068;-75
2023/03/17 08:34:22;;;;;;;6.57;3.78;;;;;;;;;;5053008;28;20045;-75
2023/03/17 08:36:48;;;;;;;6.75;3.80;;;;;;;;;;5055196;28;20045;-76
2023/03/17 08:39:14;;;;;;;6.55;3.80;;;;;;;;;;5044973;28;20080;-75
2023/03/17 08:41:40;;;;;;;8.45;4.00;;;;;;;;;;5060185;28;20040;-76
2023/03/17 08:44:08;;;;;;;8.70;3.70;;;;;;;;;;5054523;28;20124;-75
2023/03/17 08:46:34;;;;;;;7.65;3.55;;;;;;;;;;5059692;28;20055;-75
2023/03/17 08:49:00;;;;;;;6.10;3.63;;;;;;;;;;5072998;28;20037;-76
2023/03/17 08:51:28;;;;;;;5.97;3.78;;;;;;;;;;5069478;28;20049;-75
2023/03/17 08:53:54;;;;;;;6.32;3.60;;;;;;;;;;5055272;28;20084;-75
2023/03/17 08:56:21;;;;;;;6.57;3.83;;;;;;;;;;5050781;28;20468;-75
2023/03/17 08:58:47;;;;;;;6.25;3.90;;;;;;;;;;5051962;28;20071;-75
2023/03/17 09:01:14;;;;;;;6.18;3.75;;;;;;;;;;5034118;28;20040;-75
2023/03/17 09:03:40;;;;;;;9.57;3.80;;;;;;;;;;5034095;28;20045;-75
2023/03/17 09:06:08;;;;;;;7.93;4.05;;;;;;;;;;5018017;28;20124;-75
2023/03/17 09:08:37;;;;;;;7.13;4.00;;;;;;;;;;5052259;28;20056;-75
2023/03/17 09:11:04;;;;;;;7.85;3.95;;;;;;;;;;5052527;28;20051;-75
2023/03/17 09:13:31;;;;;;;7.65;4.15;;;;;;;;;;5052148;28;20560;-75
2023/03/17 09:15:57;;;;;;;6.70;4.00;;;;;;;;;;5051498;28;20140;-75
2023/03/17 09:18:23;;;;;;;6.20;4.07;;;;;;;;;;5052248;28;20132;-75
2023/03/17 09:20:49;;;;;;;6.50;3.90;;;;;;;;;;5034136;28;20065;-75
2023/03/17 09:23:15;;;;;;;6.13;3.75;;;;;;;;;;5052197;28;20095;-74
2023/03/17 09:25:41;;;;;;;6.97;3.88;;;;;;;;;;5051990;28;20505;-76
2023/03/17 09:28:08;;;;;;;7.25;4.38;;;;;;;;;;5051749;28;20048;-75
2023/03/17 09:30:35;;;;;;;7.88;4.05;;;;;;;;;;5033451;28;20037;-76
2023/03/17 09:33:02;;;;;;;6.05;4.22;;;;;;;;;;5034254;28;20428;-75
2023/03/17 09:35:30;;;;;;;6.00;3.70;;;;;;;;;;5017400;28;20120;-75
2023/03/17 09:37:56;;;;;;;5.50;3.65;;;;;;;;;;5042467;28;20450;-75
2023/03/17 09:40:26;;;;;;;8.95;3.90;;;;;;;;;;5052265;28;20044;-75
2023/03/17 09:43:05;;;;;;;7.20;3.40;;;;;;;;;;5072087;28;20044;-75
2023/03/17 09:45:39;;;;;;;6.10;3.80;;;;;;;;;;5053966;28;20071;-75
2023/03/17 09:48:21;;;;;;;8.57;4.18;;;;;;;;;;5071593;28;20505;-76
2023/03/17 09:50:56;;;;;;;6.00;3.60;;;;;;;;;;5071977;28;20102;-75
2023/03/17 09:53:33;;;;;;;8.07;3.97;;;;;;;;;;5071794;28;20037;-75
2023/03/17 09:56:00;;;;;;;8.43;3.63;;;;;;;;;;5070828;28;20105;-75
2023/03/17 09:58:31;;;;;;;7.50;3.45;;;;;;;;;;5053642;28;20558;-76
2023/03/17 10:00:58;;;;;;;5.97;3.60;;;;;;;;;;5071994;28;20127;-76
2023/03/17 10:03:24;;;;;;;6.00;3.63;;;;;;;;;;5071598;28;20182;-76
2023/03/17 10:05:51;;;;;;;5.55;3.70;;;;;;;;;;5053500;28;20045;-76
2023/03/17 10:08:30;;;;;;;8.52;3.83;;;;;;;;;;5053652;28;20048;-76
2023/03/17 10:11:00;;;;;;;6.55;3.33;;;;;;;;;;5053397;28;20131;-76
2023/03/17 10:13:26;;;;;;;6.10;3.72;;;;;;;;;;5053750;28;20047;-76
2023/03/17 10:16:03;;;;;;;5.80;3.70;;;;;;;;;;5053763;28;20052;-75
2023/03/17 10:18:31;;;;;;;6.55;3.95;;;;;;;;;;5056465;28;20185;-76
2023/03/17 10:21:03;;;;;;;8.07;3.90;;;;;;;;;;5075149;28;20398;-75
2023/03/17 10:23:31;;;;;;;6.82;3.90;;;;;;;;;;5056905;28;20045;-76
2023/03/17 10:26:00;;;;;;;7.10;3.67;;;;;;;;;;5055761;28;20044;-76
2023/03/17 10:28:31;;;;;;;8.35;4.00;;;;;;;;;;5056942;28;20485;-76
2023/03/17 10:31:01;;;;;;;5.88;3.67;;;;;;;;;;5057359;28;20071;-76
2023/03/17 10:33:27;;;;;;;6.60;3.70;;;;;;;;;;5074795;28;20401;-76
2023/03/17 10:35:56;;;;;;;6.07;3.80;;;;;;;;;;5057252;28;20405;-76
2023/03/17 10:38:23;;;;;;;7.13;3.40;;;;;;;;;;5060426;28;20123;-76
2023/03/17 10:40:57;;;;;;;5.93;3.78;;;;;;;;;;5037286;28;20386;-76
2023/03/17 10:43:27;;;;;;;9.65;3.75;;;;;;;;;;5054533;28;20048;-76
2023/03/17 10:46:00;;;;;;;6.10;3.20;;;;;;;;;;5036784;28;20059;-76
2023/03/17 10:48:26;;;;;;;6.95;4.00;;;;;;;;;;5054485;28;20061;-76
2023/03/17 10:50:55;;;;;;;6.75;3.80;;;;;;;;;;5052878;28;20123;-75
2023/03/17 10:53:29;;;;;;;7.75;3.70;;;;;;;;;;5054225;28;20041;-75
2023/03/17 10:56:01;;;;;;;5.53;3.47;;;;;;;;;;5054270;28;20049;-75
2023/03/17 10:58:43;;;;;;;9.18;3.80;;;;;;;;;;5054192;28;20094;-76
2023/03/17 11:01:18;;;;;;;6.07;3.42;;;;;;;;;;5054088;28;20041;-76
2023/03/17 11:03:45;;;;;;;9.15;3.60;;;;;;;;;;5053990;28;20258;-75
2023/03/17 11:06:13;;;;;;;6.75;3.60;;;;;;;;;;5054513;28;20047;-75
2023/03/17 11:08:41;;;;;;;8.63;3.63;;;;;;;;;;5053376;28;20446;-75
2023/03/17 11:11:09;;;;;;;5.25;3.90;;;;;;;;;;5035131;28;20456;-76
2023/03/17 11:13:36;;;;;;;6.43;3.63;;;;;;;;;;5053822;28;20065;-76
2023/03/17 11:16:03;;;;;;;6.85;3.70;;;;;;;;;;5036561;28;20373;-76
2023/03/17 11:18:32;;;;;;;6.47;3.60;;;;;;;;;;5054241;28;20459;-75
2023/03/17 11:21:01;;;;;;;6.90;3.58;;;;;;;;;;5036361;28;20049;-75
2023/03/17 11:23:46;;;;;;;5.38;3.65;;;;;;;;;;5019659;28;20089;-75
2023/03/17 11:26:24;;;;;;;7.53;3.70;;;;;;;;;;5036441;28;20033;-75
2023/03/17 11:28:56;;;;;;;6.18;3.60;;;;;;;;;;5019283;28;20099;-76
2023/03/17 11:31:26;;;;;;;8.85;3.80;;;;;;;;;;5035670;28;20114;-76
2023/03/17 11:34:10;;;;;;;4.75;3.15;;;;;;;;;;5035633;28;20124;-78
2023/03/17 11:36:49;;;;;;;11.88;3.80;;;;;;;;;;5035999;28;20088;-76
2023/03/17 11:39:15;;;;;;;8.57;3.92;;;;;;;;;;5018775;28;20056;-76
2023/03/17 11:41:41;;;;;;;5.30;3.50;;;;;;;;;;5052528;28;20401;-76
2023/03/17 11:44:37;;;;;;;5.78;3.50;;;;;;;;;;5053434;28;20045;-77
2023/03/17 11:47:27;;;;;;;8.60;3.70;;;;;;;;;;5023543;28;20084;-77
2023/03/17 11:50:14;;;;;;;5.50;3.60;;;;;;;;;;5019507;28;20052;-77
2023/03/17 11:52:59;;;;;;;6.32;3.50;;;;;;;;;;5025485;28;20108;-74
2023/03/17 11:55:41;;;;;;;5.57;3.55;;;;;;;;;;5035256;28;20056;-76
2023/03/17 11:58:12;;;;;;;6.30;3.40;;;;;;;;;;5042527;28;20441;-74
2023/03/17 12:00:44;;;;;;;6.38;3.72;;;;;;;;;;5071230;28;20497;-74
2023/03/17 12:03:10;;;;;;;5.57;3.50;;;;;;;;;;5072938;28;20512;-74
2023/03/17 12:05:37;;;;;;;6.68;3.42;;;;;;;;;;5055104;28;20071;-74
2023/03/17 12:08:07;;;;;;;7.07;4.10;;;;;;;;;;5072075;28;20055;-73
2023/03/17 12:10:36;;;;;;;6.03;3.70;;;;;;;;;;5070047;28;20489;-73
2023/03/17 12:13:22;;;;;;;6.82;3.55;;;;;;;;;;5049884;28;20173;-76
2023/03/17 12:15:54;;;;;;;7.30;4.00;;;;;;;;;;5069414;28;20079;-73
2023/03/17 12:18:29;;;;;;;5.20;3.72;;;;;;;;;;5051726;28;20087;-73
2023/03/17 12:21:06;;;;;;;5.45;4.10;;;;;;;;;;5049989;28;20041;-73
2023/03/17 12:23:37;;;;;;;10.27;4.03;;;;;;;;;;5069445;28;20059;-73
2023/03/17 12:26:11;;;;;;;8.20;4.28;;;;;;;;;;5035237;28;20108;-74
2023/03/17 12:28:49;;;;;;;6.28;3.95;;;;;;;;;;5049684;28;20052;-74
2023/03/17 12:31:31;;;;;;;8.85;4.28;;;;;;;;;;5051363;28;20056;-74
2023/03/17 12:34:02;;;;;;;7.65;4.25;;;;;;;;;;5069120;28;20040;-74
2023/03/17 12:36:29;;;;;;;5.40;3.97;;;;;;;;;;5050292;28;20127;-74
2023/03/17 12:39:05;;;;;;;7.93;4.40;;;;;;;;;;5050642;28;20045;-74
2023/03/17 12:41:35;;;;;;;7.90;4.70;;;;;;;;;;5034462;28;20044;-74
2023/03/17 12:44:05;;;;;;;9.45;4.85;;;;;;;;;;5061008;28;20401;-74
2023/03/17 12:46:43;;;;;;;8.32;4.47;;;;;;;;;;5067757;28;20041;-75
2023/03/17 12:49:25;;;;;;;7.18;4.88;;;;;;;;;;5052172;28;20052;-75
2023/03/17 12:51:51;;;;;;;7.32;4.28;;;;;;;;;;5034456;28;20665;-75
2023/03/17 12:54:31;;;;;;;7.28;4.95;;;;;;;;;;5032758;28;20465;-74
2023/03/17 12:57:03;;;;;;;7.57;4.80;;;;;;;;;;5032404;28;20045;-75
2023/03/17 12:59:30;;;;;;;9.80;5.20;;;;;;;;;;5047299;28;20438;-75
2023/03/17 13:02:15;;;;;;;7.30;4.80;;;;;;;;;;5048281;28;20398;-75
2023/03/17 13:04:47;;;;;;;9.45;4.85;;;;;;;;;;5030051;28;20045;-74
2023/03/17 13:07:13;;;;;;;6.78;4.85;;;;;;;;;;5050001;28;20037;-74
2023/03/17 13:09:46;;;;;;;9.25;4.97;;;;;;;;;;5033573;28;20053;-74
2023/03/17 13:12:44;;;;;;;8.75;4.80;;;;;;;;;;5034055;28;20106;-75
2023/03/17 13:15:29;;;;;;;9.48;5.50;;;;;;;;;;5007498;28;20085;-74
2023/03/17 13:18:14;;;;;;;8.87;4.90;;;;;;;;;;5056207;28;20117;-74
2023/03/17 13:20:44;;;;;;;9.27;5.00;;;;;;;;;;5069127;28;20041;-74
2023/03/17 13:23:10;;;;;;;9.35;5.53;;;;;;;;;;5051897;28;20370;-74
2023/03/17 13:25:44;;;;;;;10.48;5.43;;;;;;;;;;5068577;28;20055;-74
2023/03/17 13:28:10;;;;;;;8.98;5.75;;;;;;;;;;5054060;28;20060;-75
2023/03/17 13:30:37;;;;;;;8.57;5.47;;;;;;;;;;5071743;28;20481;-74
2023/03/17 13:33:09;;;;;;;8.88;5.28;;;;;;;;;;5036848;28;20087;-74
2023/03/17 13:35:44;;;;;;;9.30;5.10;;;;;;;;;;5071483;28;20044;-74
2023/03/17 13:38:29;;;;;;;8.05;5.22;;;;;;;;;;5066887;28;20088;-74
2023/03/17 13:41:08;;;;;;;12.25;6.05;;;;;;;;;;5053124;28;20060;-74
2023/03/17 13:43:52;;;;;;;10.70;5.70;;;;;;;;;;5022035;28;20079;-74
2023/03/17 13:46:39;;;;;;;8.25;5.57;;;;;;;;;;5051772;28;20041;-74
2023/03/17 13:49:17;;;;;;;8.98;5.75;;;;;;;;;;5040021;28;20061;-74
2023/03/17 13:51:51;;;;;;;9.35;5.60;;;;;;;;;;5033854;28;20402;-74
2023/03/17 13:54:29;;;;;;;8.38;5.70;;;;;;;;;;5020720;28;20132;-74
2023/03/17 13:56:58;;;;;;;10.13;5.80;;;;;;;;;;5021418;28;20045;-74
2023/03/17 13:59:35;;;;;;;8.27;5.60;;;;;;;;;;5055248;28;20048;-74
2023/03/17 14:02:15;;;;;;;12.90;5.90;;;;;;;;;;5055210;28;20076;-74
2023/03/17 14:04:57;;;;;;;11.20;5.90;;;;;;;;;;5054886;28;20044;-74
2023/03/17 14:07:24;;;;;;;10.77;6.05;;;;;;;;;;5055140;28;20048;-75
2023/03/17 14:09:52;;;;;;;9.05;5.97;;;;;;;;;;5055012;28;20052;-75
2023/03/17 14:12:33;;;;;;;9.73;5.75;;;;;;;;;;5054950;28;20061;-79
2023/03/17 14:15:04;;;;;;;9.13;5.35;;;;;;;;;;5052061;28;20086;-75
2023/03/17 14:17:40;;;;;;;8.77;5.78;;;;;;;;;;5053039;28;20052;-76
2023/03/17 14:20:13;;;;;;;9.68;5.90;;;;;;;;;;5069799;28;20041;-75
2023/03/17 14:22:40;;;;;;;9.85;5.90;;;;;;;;;;5064743;28;20052;-75
2023/03/17 14:25:13;;;;;;;11.27;5.78;;;;;;;;;;5051039;28;20120;-75
2023/03/17 14:27:40;;;;;;;9.00;6.05;;;;;;;;;;5037908;28;20075;-75
2023/03/17 14:30:16;;;;;;;14.73;6.10;;;;;;;;;;5070972;28;20049;-75
2023/03/17 14:32:45;;;;;;;10.93;6.20;;;;;;;;;;5058100;28;20045;-75
2023/03/17 14:35:12;;;;;;;10.32;5.90;;;;;;;;;;5070548;28;20045;-76
2023/03/17 14:37:38;;;;;;;10.02;5.88;;;;;;;;;;5057333;28;20045;-75
2023/03/17 14:40:18;;;;;;;10.80;6.22;;;;;;;;;;5054444;28;20052;-75
2023/03/17 14:42:44;;;;;;;12.63;6.00;;;;;;;;;;5036677;28;20131;-75
2023/03/17 14:45:19;;;;;;;8.40;5.70;;;;;;;;;;5036919;28;20242;-75
2023/03/17 14:47:45;;;;;;;8.63;6.40;;;;;;;;;;5033969;28;20148;-75
2023/03/17 14:50:23;;;;;;;10.13;6.30;;;;;;;;;;5054647;28;20045;-75
2023/03/17 14:52:49;;;;;;;9.38;5.85;;;;;;;;;;5036376;28;20041;-75